Time;durP1;ratioP1;P1;durP2;ratioP2;P2;SDS_P1;SDS_P2;PMS_P1;PMS_P2;Temp;Humidity;BMP_temperature;BMP_pressure;BME280_temperature;BME280_humidity;BME280_pressure;Samples;Min_cycle;Max_cycle;Signal;HPM_P1;HPM_P2
2022/07/23 00:01:32;;;;;;;22.55;20.90;;;20.00;65.30;;;;;;5016142;28;20037;-81
2022/07/23 00:03:58;;;;;;;23.33;21.40;;;20.00;65.30;;;;;;5050689;28;20040;-81
2022/07/23 00:06:24;;;;;;;23.35;21.52;;;19.90;65.90;;;;;;5050697;28;20390;-81
2022/07/23 00:08:50;;;;;;;24.73;22.70;;;19.80;66.20;;;;;;5049028;28;20044;-81
2022/07/23 00:11:17;;;;;;;22.42;20.85;;;19.80;66.40;;;;;;5033172;28;20040;-80
2022/07/23 00:13:43;;;;;;;25.10;23.30;;;19.60;67.50;;;;;;5033061;28;20044;-81
2022/07/23 00:16:09;;;;;;;27.23;25.38;;;19.60;67.10;;;;;;5032751;28;20480;-80
2022/07/23 00:18:35;;;;;;;24.73;22.98;;;19.60;67.20;;;;;;5035530;28;20045;-80
2022/07/23 00:21:01;;;;;;;28.20;26.05;;;19.50;67.40;;;;;;5053056;28;20033;-80
2022/07/23 00:23:28;;;;;;;27.15;25.48;;;19.30;68.00;;;;;;5054586;28;20378;-81
2022/07/23 00:25:55;;;;;;;27.67;25.70;;;19.20;68.60;;;;;;5054513;28;20021;-81
2022/07/23 00:28:21;;;;;;;25.30;23.52;;;19.20;69.70;;;;;;5054728;28;20033;-80
2022/07/23 00:30:47;;;;;;;25.52;23.63;;;19.20;68.90;;;;;;5052526;28;20036;-80
2022/07/23 00:33:13;;;;;;;25.75;24.10;;;19.40;68.80;;;;;;5054076;28;20378;-81
2022/07/23 00:35:40;;;;;;;23.02;21.17;;;19.40;68.50;;;;;;5054444;28;20490;-81
2022/07/23 00:38:07;;;;;;;20.50;19.08;;;19.40;68.70;;;;;;5050336;28;20041;-81
2022/07/23 00:40:34;;;;;;;22.27;20.73;;;19.30;68.80;;;;;;5032920;28;20032;-81
2022/07/23 00:43:00;;;;;;;20.98;19.52;;;19.30;69.40;;;;;;5034341;28;20065;-80
2022/07/23 00:45:26;;;;;;;20.77;19.10;;;19.20;69.60;;;;;;5025361;28;20616;-80
2022/07/23 00:47:52;;;;;;;20.25;18.88;;;19.10;69.90;;;;;;5054015;28;20040;-80
2022/07/23 00:50:18;;;;;;;18.55;16.95;;;19.10;69.70;;;;;;5035866;28;20434;-80
2022/07/23 00:52:44;;;;;;;19.55;17.95;;;19.10;70.00;;;;;;5052613;28;20041;-81
2022/07/23 00:55:11;;;;;;;18.42;17.13;;;19.10;69.80;;;;;;5054085;28;20025;-80
2022/07/23 00:57:37;;;;;;;19.88;18.33;;;19.10;69.70;;;;;;5052490;28;20501;-80
2022/07/23 01:00:05;;;;;;;18.83;17.23;;;19.10;70.10;;;;;;5052988;28;20033;-79
2022/07/23 01:02:31;;;;;;;19.95;18.10;;;19.10;70.30;;;;;;5051646;28;20037;-80
2022/07/23 01:04:57;;;;;;;19.30;17.60;;;19.20;69.90;;;;;;5052225;28;20048;-81
2022/07/23 01:07:23;;;;;;;20.23;18.23;;;19.20;69.80;;;;;;5052343;28;20462;-81
2022/07/23 01:09:50;;;;;;;20.92;19.17;;;19.20;69.70;;;;;;5053693;28;20025;-81
2022/07/23 01:12:16;;;;;;;20.65;19.25;;;19.20;69.80;;;;;;5052693;28;20489;-81
2022/07/23 01:14:42;;;;;;;22.15;20.50;;;19.10;70.00;;;;;;5053174;28;20040;-80
2022/07/23 01:17:09;;;;;;;23.38;21.60;;;19.10;70.30;;;;;;5053034;28;20402;-81
2022/07/23 01:19:35;;;;;;;22.67;21.17;;;19.20;70.20;;;;;;5051958;28;20033;-80
2022/07/23 01:22:02;;;;;;;21.42;19.67;;;19.20;69.90;;;;;;5053537;28;20391;-80
2022/07/23 01:24:28;;;;;;;21.98;20.27;;;19.30;70.30;;;;;;5052191;28;20029;-81
2022/07/23 01:26:54;;;;;;;23.02;21.02;;;19.40;69.20;;;;;;5035332;28;20041;-81
2022/07/23 01:29:21;;;;;;;23.23;21.60;;;19.40;69.00;;;;;;5052616;28;20032;-81
2022/07/23 01:31:47;;;;;;;23.92;22.27;;;19.50;68.90;;;;;;5052754;28;20045;-82
2022/07/23 01:34:13;;;;;;;27.02;25.10;;;19.50;68.60;;;;;;5051976;28;20517;-81
2022/07/23 01:36:39;;;;;;;21.90;20.35;;;19.50;68.60;;;;;;5053159;28;20029;-80
2022/07/23 01:39:06;;;;;;;22.02;20.42;;;19.50;68.70;;;;;;5051016;28;20056;-80
2022/07/23 01:41:32;;;;;;;21.88;20.02;;;19.50;68.30;;;;;;5053119;28;20029;-81
2022/07/23 01:43:59;;;;;;;24.77;22.85;;;19.60;68.20;;;;;;5043300;28;20025;-80
2022/07/23 01:46:25;;;;;;;23.63;21.67;;;19.60;68.10;;;;;;5032504;28;20483;-80
2022/07/23 01:48:51;;;;;;;25.73;23.83;;;19.50;68.50;;;;;;5051411;28;20029;-80
2022/07/23 01:51:17;;;;;;;23.42;21.92;;;19.40;68.70;;;;;;5052908;28;20025;-80
2022/07/23 01:53:43;;;;;;;25.55;23.50;;;19.40;68.50;;;;;;5052811;28;20033;-80
2022/07/23 01:56:09;;;;;;;25.98;23.98;;;19.50;68.30;;;;;;5052632;28;20032;-81
2022/07/23 01:58:35;;;;;;;27.38;25.50;;;19.50;68.40;;;;;;5052363;28;20041;-81
2022/07/23 02:01:01;;;;;;;25.30;23.35;;;19.40;68.60;;;;;;5033968;28;20033;-81
2022/07/23 02:03:27;;;;;;;25.23;23.33;;;19.40;68.70;;;;;;5051146;28;20025;-80
2022/07/23 02:05:54;;;;;;;26.02;23.98;;;19.40;68.40;;;;;;5051333;28;20029;-81
2022/07/23 02:08:20;;;;;;;27.80;25.63;;;19.40;68.50;;;;;;5052371;28;20486;-80
2022/07/23 02:10:46;;;;;;;25.25;23.52;;;19.40;68.40;;;;;;5052266;28;20033;-80
2022/07/23 02:13:12;;;;;;;23.48;21.77;;;19.40;68.50;;;;;;5052046;28;20060;-81
2022/07/23 02:15:38;;;;;;;23.90;22.00;;;19.40;68.40;;;;;;5050635;28;20025;-80
2022/07/23 02:18:04;;;;;;;24.13;22.52;;;19.40;68.30;;;;;;5052189;28;20060;-80
2022/07/23 02:20:30;;;;;;;23.08;21.55;;;19.40;68.50;;;;;;5052396;28;20036;-81
2022/07/23 02:22:56;;;;;;;23.90;22.27;;;19.40;68.30;;;;;;5051054;28;20025;-81
2022/07/23 02:25:23;;;;;;;26.58;24.67;;;19.40;68.40;;;;;;5050895;28;20056;-81
2022/07/23 02:27:49;;;;;;;26.90;24.65;;;19.40;68.30;;;;;;5051881;28;20041;-81
2022/07/23 02:30:15;;;;;;;26.42;24.52;;;19.40;68.50;;;;;;5050445;28;20036;-80
2022/07/23 02:32:41;;;;;;;27.15;25.20;;;19.30;68.60;;;;;;5052186;28;20025;-80
2022/07/23 02:35:07;;;;;;;27.98;25.80;;;19.30;68.40;;;;;;5050832;28;20390;-80
2022/07/23 02:37:33;;;;;;;28.58;26.15;;;19.30;68.70;;;;;;5051689;28;20487;-80
2022/07/23 02:39:59;;;;;;;27.88;25.83;;;19.30;68.80;;;;;;5049767;28;20060;-80
2022/07/23 02:42:25;;;;;;;27.20;25.40;;;19.30;68.60;;;;;;5051528;28;20474;-80
2022/07/23 02:44:51;;;;;;;27.10;25.15;;;19.20;68.80;;;;;;5040065;28;20045;-81
2022/07/23 02:47:18;;;;;;;27.80;25.80;;;19.20;68.90;;;;;;5051400;28;20029;-80
2022/07/23 02:49:44;;;;;;;26.10;24.25;;;19.20;68.90;;;;;;5051440;28;20029;-81
2022/07/23 02:52:10;;;;;;;27.40;25.60;;;19.10;68.90;;;;;;5050473;28;20044;-80
2022/07/23 02:54:37;;;;;;;27.17;25.27;;;19.10;69.00;;;;;;5051797;28;20033;-80
2022/07/23 02:57:04;;;;;;;29.45;27.52;;;19.10;69.20;;;;;;5051393;28;20037;-81
2022/07/23 02:59:30;;;;;;;27.27;25.52;;;19.00;69.10;;;;;;5051679;28;20036;-80
2022/07/23 03:01:56;;;;;;;28.42;26.63;;;19.00;69.10;;;;;;5051118;28;20029;-81
2022/07/23 03:04:22;;;;;;;27.77;25.85;;;19.00;69.20;;;;;;5051306;28;20036;-80
2022/07/23 03:06:48;;;;;;;28.73;26.48;;;19.00;69.30;;;;;;5051385;28;20029;-80
2022/07/23 03:09:14;;;;;;;26.85;24.98;;;19.00;69.50;;;;;;5050193;28;20029;-80
2022/07/23 03:11:40;;;;;;;27.85;25.58;;;19.00;69.10;;;;;;5050993;28;20052;-81
2022/07/23 03:14:07;;;;;;;28.50;26.30;;;19.00;69.10;;;;;;5049860;28;20036;-80
2022/07/23 03:16:33;;;;;;;28.40;26.30;;;18.90;69.20;;;;;;5051153;28;20033;-80
2022/07/23 03:18:59;;;;;;;29.45;27.40;;;19.00;69.20;;;;;;5050779;28;20033;-80
2022/07/23 03:21:25;;;;;;;28.77;26.73;;;18.90;69.10;;;;;;5050081;28;20038;-80
2022/07/23 03:23:51;;;;;;;28.65;26.48;;;18.90;69.50;;;;;;5051109;28;20036;-80
2022/07/23 03:26:17;;;;;;;29.67;27.70;;;18.80;69.50;;;;;;5050705;28;20037;-80
2022/07/23 03:28:44;;;;;;;28.52;26.55;;;18.80;69.70;;;;;;5033210;28;20033;-80
2022/07/23 03:31:10;;;;;;;27.77;25.90;;;18.80;69.70;;;;;;5049423;28;20033;-81
2022/07/23 03:33:36;;;;;;;28.48;26.05;;;18.80;70.80;;;;;;5050935;28;20414;-80
2022/07/23 03:36:02;;;;;;;27.23;25.63;;;18.80;69.80;;;;;;5049791;28;20021;-80
2022/07/23 03:38:28;;;;;;;27.98;26.05;;;18.80;70.00;;;;;;5049455;28;20032;-80
2022/07/23 03:40:54;;;;;;;28.35;26.52;;;18.80;70.00;;;;;;5050533;28;20033;-80
2022/07/23 03:43:20;;;;;;;30.33;28.05;;;18.70;70.50;;;;;;5047967;28;20025;-80
2022/07/23 03:45:46;;;;;;;31.98;29.58;;;18.70;70.40;;;;;;5041802;28;20052;-80
2022/07/23 03:48:12;;;;;;;29.63;27.58;;;18.70;70.50;;;;;;5049155;28;20048;-81
2022/07/23 03:50:39;;;;;;;31.08;29.15;;;18.70;70.40;;;;;;5050800;28;20033;-80
2022/07/23 03:53:05;;;;;;;30.48;28.40;;;18.70;70.50;;;;;;5053905;28;20054;-80
2022/07/23 03:55:31;;;;;;;31.92;29.38;;;18.70;70.40;;;;;;5054599;28;20029;-80
2022/07/23 03:57:57;;;;;;;30.38;28.23;;;18.60;70.60;;;;;;5055185;28;20044;-80
2022/07/23 04:00:23;;;;;;;28.60;26.45;;;18.60;70.50;;;;;;5054405;28;20052;-80
2022/07/23 04:02:49;;;;;;;29.98;27.90;;;18.60;71.60;;;;;;5054804;28;20042;-80
2022/07/23 04:05:15;;;;;;;28.80;26.60;;;18.60;70.80;;;;;;5036583;28;20048;-80
2022/07/23 04:07:41;;;;;;;29.45;27.25;;;18.60;70.90;;;;;;5053641;28;20077;-81
2022/07/23 04:10:08;;;;;;;28.50;26.42;;;18.60;70.80;;;;;;5052140;28;20017;-81
2022/07/23 04:12:34;;;;;;;26.48;24.75;;;18.60;70.70;;;;;;5053732;28;20037;-80
2022/07/23 04:15:00;;;;;;;27.58;25.23;;;18.60;70.70;;;;;;5054846;28;20033;-80
2022/07/23 04:17:26;;;;;;;27.95;26.02;;;18.60;70.90;;;;;;5054063;28;20044;-80
2022/07/23 04:19:52;;;;;;;27.50;25.60;;;18.60;71.10;;;;;;5054734;28;20045;-80
2022/07/23 04:22:18;;;;;;;27.70;25.63;;;18.60;71.10;;;;;;5054371;28;20025;-81
2022/07/23 04:24:44;;;;;;;27.27;25.58;;;18.60;71.30;;;;;;5054048;28;20029;-80
2022/07/23 04:27:10;;;;;;;27.42;25.63;;;18.60;71.30;;;;;;5053315;28;20451;-81
2022/07/23 04:29:39;;;;;;;29.08;26.92;;;18.50;71.50;;;;;;5054169;28;20043;-80
2022/07/23 04:32:06;;;;;;;28.67;26.67;;;18.50;71.60;;;;;;5052567;28;20486;-80
2022/07/23 04:34:32;;;;;;;28.38;26.50;;;18.50;71.90;;;;;;5054447;28;20029;-81
2022/07/23 04:36:58;;;;;;;28.35;26.42;;;18.50;71.90;;;;;;5053072;28;20039;-81
2022/07/23 04:39:24;;;;;;;28.67;26.45;;;18.60;71.60;;;;;;5053945;28;20043;-80
2022/07/23 04:41:50;;;;;;;28.88;27.00;;;18.50;71.70;;;;;;5054232;28;20029;-81
2022/07/23 04:44:16;;;;;;;29.27;27.20;;;18.60;71.70;;;;;;5043582;28;20045;-80
2022/07/23 04:46:42;;;;;;;28.77;26.92;;;18.60;71.70;;;;;;5053927;28;20033;-80
2022/07/23 04:49:08;;;;;;;28.30;26.33;;;18.60;71.60;;;;;;5052616;28;20044;-80
2022/07/23 04:51:35;;;;;;;29.73;27.55;;;18.60;71.70;;;;;;5052525;28;20033;-80
2022/07/23 04:54:01;;;;;;;29.92;27.52;;;18.50;71.90;;;;;;5052280;28;20033;-80
2022/07/23 04:56:27;;;;;;;28.40;26.40;;;18.50;72.10;;;;;;5052817;28;20045;-80
2022/07/23 04:58:53;;;;;;;30.20;27.90;;;18.50;72.90;;;;;;5052282;28;20410;-80
2022/07/23 05:01:19;;;;;;;28.77;26.88;;;18.50;72.00;;;;;;5053316;28;20033;-80
2022/07/23 05:03:45;;;;;;;30.55;28.52;;;18.50;72.00;;;;;;5053011;28;20372;-80
2022/07/23 05:06:11;;;;;;;29.98;27.98;;;18.50;72.10;;;;;;5053630;28;20032;-80
2022/07/23 05:08:37;;;;;;;30.35;28.10;;;18.50;72.10;;;;;;5053372;28;20391;-80
2022/07/23 05:11:03;;;;;;;28.85;26.88;;;18.50;72.30;;;;;;5053607;28;20021;-80
2022/07/23 05:13:29;;;;;;;30.17;27.98;;;18.50;72.30;;;;;;5053518;28;20021;-81
2022/07/23 05:15:55;;;;;;;30.23;28.20;;;18.50;72.10;;;;;;5052905;28;20048;-80
2022/07/23 05:18:22;;;;;;;29.58;27.50;;;18.50;72.20;;;;;;5052381;28;20494;-81
2022/07/23 05:20:48;;;;;;;30.05;27.98;;;18.50;72.00;;;;;;5053179;28;20045;-80
2022/07/23 05:23:14;;;;;;;29.15;27.25;;;18.50;72.10;;;;;;5053117;28;20036;-80
2022/07/23 05:25:40;;;;;;;30.63;28.92;;;18.50;72.30;;;;;;5053483;28;20376;-80
2022/07/23 05:28:06;;;;;;;34.97;32.80;;;18.50;72.80;;;;;;5052413;28;20411;-81
2022/07/23 05:30:32;;;;;;;36.72;34.38;;;18.50;73.00;;;;;;5051719;28;20037;-80
2022/07/23 05:32:58;;;;;;;29.13;26.92;;;18.60;73.10;;;;;;5053270;28;20025;-81
2022/07/23 05:35:25;;;;;;;28.27;26.52;;;18.70;73.00;;;;;;5053136;28;20025;-81
2022/07/23 05:37:52;;;;;;;27.45;25.15;;;18.70;73.10;;;;;;5052637;28;20024;-81
2022/07/23 05:40:18;;;;;;;28.33;26.35;;;18.90;72.80;;;;;;5052697;28;20056;-81
2022/07/23 05:42:44;;;;;;;32.95;30.85;;;19.10;72.40;;;;;;5052959;28;20352;-81
2022/07/23 05:45:10;;;;;;;31.27;29.25;;;19.20;71.80;;;;;;5040911;28;20045;-80
2022/07/23 05:47:54;;;;;;;36.28;34.08;;;19.30;71.10;;;;;;5052897;28;20033;-81
2022/07/23 05:50:20;;;;;;;36.05;33.65;;;19.50;70.10;;;;;;5052793;28;20029;-81
2022/07/23 05:52:47;;;;;;;37.55;35.03;;;19.60;70.50;;;;;;5052805;28;20032;-81
2022/07/23 05:55:13;;;;;;;39.42;37.03;;;19.70;70.00;;;;;;5052829;28;20033;-81
2022/07/23 05:57:40;;;;;;;40.35;37.75;;;19.90;69.40;;;;;;5052789;28;20037;-82
2022/07/23 06:00:06;;;;;;;34.72;32.38;;;20.10;68.90;;;;;;5051037;28;20505;-81
2022/07/23 06:02:33;;;;;;;32.90;30.50;;;20.20;68.30;;;;;;5052711;28;20379;-81
2022/07/23 06:04:59;;;;;;;32.25;30.20;;;20.30;67.70;;;;;;5052354;28;20032;-82
2022/07/23 06:07:25;;;;;;;26.70;24.77;;;20.50;67.20;;;;;;5051257;28;20021;-82
2022/07/23 06:09:51;;;;;;;29.27;27.40;;;20.60;66.40;;;;;;5052300;28;20033;-82
2022/07/23 06:12:17;;;;;;;27.95;26.02;;;20.60;66.60;;;;;;5034412;28;20426;-81
2022/07/23 06:14:43;;;;;;;27.08;25.42;;;20.70;66.40;;;;;;5051336;28;20040;-81
2022/07/23 06:17:10;;;;;;;26.60;24.83;;;20.90;65.90;;;;;;5052100;28;20037;-81
2022/07/23 06:19:36;;;;;;;26.65;24.67;;;21.00;65.80;;;;;;5051999;28;20053;-82
2022/07/23 06:22:02;;;;;;;27.25;25.52;;;21.10;65.40;;;;;;5051031;28;20494;-81
2022/07/23 06:24:28;;;;;;;26.30;24.58;;;21.10;65.40;;;;;;5052046;28;20036;-82
2022/07/23 06:26:54;;;;;;;27.17;25.48;;;21.20;64.50;;;;;;5050541;28;20419;-82
2022/07/23 06:29:20;;;;;;;29.30;27.42;;;21.20;64.80;;;;;;5052034;28;20033;-82
2022/07/23 06:31:46;;;;;;;29.10;27.23;;;21.30;64.90;;;;;;5048471;28;20029;-82
2022/07/23 06:34:12;;;;;;;29.80;27.50;;;21.30;64.40;;;;;;5051938;28;20048;-82
2022/07/23 06:36:38;;;;;;;28.27;26.33;;;21.50;64.20;;;;;;5051930;28;20033;-81
2022/07/23 06:39:04;;;;;;;28.23;26.35;;;21.50;64.20;;;;;;5033666;28;20487;-82
2022/07/23 06:41:31;;;;;;;32.13;29.83;;;21.60;63.80;;;;;;5051804;28;20032;-82
2022/07/23 06:43:57;;;;;;;30.90;28.95;;;21.70;63.60;;;;;;5043983;28;20032;-82
2022/07/23 06:46:23;;;;;;;30.10;28.05;;;21.80;63.30;;;;;;5031132;28;20048;-82
2022/07/23 06:48:49;;;;;;;31.30;29.05;;;21.90;63.10;;;;;;5051347;28;20048;-82
2022/07/23 06:51:15;;;;;;;30.13;28.08;;;22.00;62.90;;;;;;5050309;28;20021;-82
2022/07/23 06:53:41;;;;;;;31.38;29.30;;;22.20;62.60;;;;;;5051366;28;20029;-82
2022/07/23 06:56:07;;;;;;;34.90;32.38;;;22.30;62.20;;;;;;5033931;28;20040;-82
2022/07/23 06:58:33;;;;;;;32.85;30.73;;;22.40;61.70;;;;;;5050449;28;20021;-82
2022/07/23 07:00:59;;;;;;;30.58;28.67;;;22.60;61.60;;;;;;5049468;28;20040;-82
2022/07/23 07:03:25;;;;;;;30.80;28.85;;;22.70;60.90;;;;;;5033216;28;20040;-82
2022/07/23 07:05:52;;;;;;;34.08;32.00;;;22.70;60.10;;;;;;5051452;28;20052;-82
2022/07/23 07:08:19;;;;;;;35.55;33.22;;;22.50;61.00;;;;;;5051432;28;20033;-82
2022/07/23 07:10:45;;;;;;;33.58;31.30;;;22.50;61.50;;;;;;5051189;28;20029;-82
2022/07/23 07:13:11;;;;;;;32.83;30.33;;;22.60;60.20;;;;;;5050169;28;20033;-82
2022/07/23 07:15:37;;;;;;;33.40;31.17;;;22.40;60.50;;;;;;5050670;28;20040;-82
2022/07/23 07:18:03;;;;;;;34.28;32.08;;;22.40;60.70;;;;;;5049735;28;20045;-82
2022/07/23 07:20:29;;;;;;;34.03;32.03;;;22.30;60.90;;;;;;5051105;28;20037;-82
2022/07/23 07:22:55;;;;;;;37.53;34.95;;;22.30;61.10;;;;;;5050091;28;20029;-82
2022/07/23 07:25:21;;;;;;;32.38;30.45;;;22.20;61.90;;;;;;5050816;28;20024;-82
2022/07/23 07:27:47;;;;;;;32.40;30.45;;;22.20;61.50;;;;;;5049652;28;20036;-83
2022/07/23 07:30:14;;;;;;;31.42;28.90;;;22.30;62.10;;;;;;5049377;28;20033;-82
2022/07/23 07:32:40;;;;;;;32.80;30.67;;;22.50;60.90;;;;;;5050763;28;20402;-83
2022/07/23 07:35:07;;;;;;;30.88;28.77;;;22.60;61.50;;;;;;5049478;28;20045;-83
2022/07/23 07:37:33;;;;;;;31.20;28.90;;;22.70;60.00;;;;;;5050769;28;20013;-83
2022/07/23 07:39:59;;;;;;;32.65;30.45;;;22.70;60.00;;;;;;5030419;28;20041;-82
2022/07/23 07:42:25;;;;;;;35.00;32.72;;;22.80;60.00;;;;;;5030304;28;20021;-83
2022/07/23 07:44:51;;;;;;;33.03;30.63;;;22.80;61.30;;;;;;5044856;28;20402;-84
2022/07/23 07:47:18;;;;;;;29.98;27.98;;;23.00;60.40;;;;;;5048785;28;20045;-82
2022/07/23 07:49:44;;;;;;;30.13;28.30;;;23.20;58.90;;;;;;5051112;28;20498;-83
2022/07/23 07:52:11;;;;;;;31.27;29.50;;;23.10;59.10;;;;;;5050771;28;20026;-84
2022/07/23 07:54:37;;;;;;;30.80;28.83;;;23.20;59.10;;;;;;5033298;28;20371;-84
2022/07/23 07:57:03;;;;;;;37.97;35.35;;;23.30;59.90;;;;;;5050734;28;20037;-84
2022/07/23 07:59:29;;;;;;;33.83;31.55;;;23.50;58.00;;;;;;5050673;28;20028;-84
2022/07/23 08:01:55;;;;;;;44.13;41.53;;;23.40;59.70;;;;;;5048931;28;20482;-84
2022/07/23 08:04:21;;;;;;;33.47;31.40;;;23.60;58.70;;;;;;5049504;28;20037;-84
2022/07/23 08:06:47;;;;;;;29.95;28.05;;;23.80;57.90;;;;;;5050820;28;20037;-84
2022/07/23 08:09:14;;;;;;;31.42;29.30;;;23.80;57.80;;;;;;5051111;28;20025;-84
2022/07/23 08:11:40;;;;;;;28.95;26.92;;;23.80;58.30;;;;;;5034011;28;20044;-84
2022/07/23 08:14:06;;;;;;;30.65;28.42;;;23.80;58.20;;;;;;5050596;28;20383;-84
2022/07/23 08:16:32;;;;;;;31.35;29.38;;;24.10;58.20;;;;;;5049911;28;20033;-84
2022/07/23 08:18:58;;;;;;;31.65;29.63;;;24.30;57.80;;;;;;5049496;28;20036;-84
2022/07/23 08:21:24;;;;;;;40.30;37.78;;;24.50;56.30;;;;;;5050622;28;20037;-84
2022/07/23 08:23:50;;;;;;;38.65;36.42;;;24.40;56.40;;;;;;5050478;28;20459;-84
2022/07/23 08:26:16;;;;;;;40.33;37.85;;;24.30;57.20;;;;;;5050493;28;20033;-84
2022/07/23 08:28:42;;;;;;;32.70;30.20;;;24.50;57.10;;;;;;5050857;28;20021;-84
2022/07/23 08:31:10;;;;;;;28.20;26.50;;;24.80;56.80;;;;;;5049928;28;20260;-84
2022/07/23 08:33:36;;;;;;;25.60;23.77;;;24.90;54.90;;;;;;5049278;28;20486;-84
2022/07/23 08:36:04;;;;;;;24.23;22.75;;;24.40;55.00;;;;;;5050392;28;20037;-84
2022/07/23 08:38:31;;;;;;;25.98;24.13;;;24.20;55.80;;;;;;5044758;28;20041;-84
2022/07/23 08:40:57;;;;;;;27.05;24.73;;;24.30;55.80;;;;;;5034186;28;20086;-84
2022/07/23 08:43:30;;;;;;;25.48;23.60;;;24.50;55.80;;;;;;5037258;28;20031;-84
2022/07/23 08:45:58;;;;;;;25.20;23.60;;;24.50;55.00;;;;;;5051717;28;20034;-84
2022/07/23 08:48:25;;;;;;;30.98;28.60;;;24.50;55.30;;;;;;5052613;28;20033;-84
2022/07/23 08:50:55;;;;;;;31.85;29.83;;;24.50;55.60;;;;;;5053691;28;20025;-84
2022/07/23 08:53:22;;;;;;;35.03;33.03;;;24.50;55.90;;;;;;5052563;28;20036;-84
2022/07/23 08:55:50;;;;;;;32.80;30.80;;;24.70;55.60;;;;;;5053803;28;20036;-84
2022/07/23 08:58:16;;;;;;;32.25;30.15;;;25.00;54.40;;;;;;5066487;28;20025;-84
2022/07/23 09:00:42;;;;;;;31.30;29.58;;;25.20;54.00;;;;;;5074150;28;20045;-83
2022/07/23 09:03:17;;;;;;;28.98;27.27;;;25.20;53.30;;;;;;5063152;28;20037;-84
2022/07/23 09:05:44;;;;;;;30.55;28.73;;;25.10;53.20;;;;;;5019975;28;20040;-84
2022/07/23 09:08:12;;;;;;;31.67;29.52;;;25.10;53.30;;;;;;5053568;28;20037;-84
2022/07/23 09:11:00;;;;;;;32.70;30.42;;;25.00;54.10;;;;;;5052329;28;20025;-83
2022/07/23 09:13:39;;;;;;;32.78;30.65;;;25.20;52.60;;;;;;5059874;28;20025;-84
2022/07/23 09:16:06;;;;;;;32.80;30.83;;;25.40;52.30;;;;;;5056199;28;20029;-84
2022/07/23 09:18:34;;;;;;;35.08;33.00;;;25.70;53.10;;;;;;5054798;28;20032;-85
2022/07/23 09:21:20;;;;;;;30.63;28.83;;;26.10;52.80;;;;;;5053154;28;20037;-85
2022/07/23 09:24:05;;;;;;;33.83;31.33;;;26.00;50.30;;;;;;5053451;28;20426;-84
2022/07/23 09:26:32;;;;;;;34.38;31.95;;;25.60;51.80;;;;;;5053403;28;20036;-85
2022/07/23 09:29:24;;;;;;;34.50;32.13;;;25.80;52.70;;;;;;5053449;28;20025;-84
2022/07/23 09:31:55;;;;;;;34.38;32.13;;;26.10;51.50;;;;;;5052661;28;20022;-85
2022/07/23 09:34:25;;;;;;;28.90;26.92;;;26.40;50.20;;;;;;5037921;28;20020;-84
2022/07/23 09:37:15;;;;;;;29.35;27.63;;;26.00;50.50;;;;;;5054810;28;20032;-84
2022/07/23 09:39:42;;;;;;;29.70;27.80;;;25.90;50.80;;;;;;5049583;28;20025;-85
2022/07/23 09:42:15;;;;;;;30.80;28.80;;;25.90;51.10;;;;;;5052228;28;20490;-85
2022/07/23 09:44:46;;;;;;;29.90;27.75;;;26.00;51.10;;;;;;5041412;28;20049;-85
2022/07/23 09:47:12;;;;;;;31.13;29.42;;;25.90;50.60;;;;;;5051429;28;20041;-85
2022/07/23 09:49:38;;;;;;;29.15;27.13;;;26.10;51.10;;;;;;5052770;28;20033;-85
2022/07/23 09:52:04;;;;;;;33.70;31.67;;;26.30;50.30;;;;;;5051741;28;20467;-86
2022/07/23 09:54:33;;;;;;;29.95;27.77;;;26.40;50.20;;;;;;5052824;28;20029;-85
2022/07/23 09:57:01;;;;;;;30.70;28.65;;;26.50;48.70;;;;;;5052458;28;20372;-85
2022/07/23 09:59:30;;;;;;;28.67;27.05;;;26.00;49.20;;;;;;5051454;28;20021;-85
2022/07/23 10:01:58;;;;;;;32.13;30.27;;;25.80;50.00;;;;;;5050572;28;20056;-85
2022/07/23 10:04:25;;;;;;;32.25;30.15;;;25.90;51.20;;;;;;5052762;28;20045;-84
2022/07/23 10:06:53;;;;;;;31.63;29.45;;;26.30;49.70;;;;;;5052608;28;20032;-85
2022/07/23 10:09:26;;;;;;;31.73;29.83;;;26.40;49.60;;;;;;5052369;28;20471;-85
2022/07/23 10:11:56;;;;;;;29.60;27.52;;;26.50;48.90;;;;;;5051171;28;20517;-86
2022/07/23 10:14:22;;;;;;;28.95;27.08;;;26.30;49.20;;;;;;5052216;28;20029;-85
2022/07/23 10:16:49;;;;;;;32.58;30.33;;;26.10;49.60;;;;;;5050680;28;20052;-85
2022/07/23 10:19:15;;;;;;;27.55;25.83;;;26.20;50.00;;;;;;5051331;28;20021;-85
2022/07/23 10:21:46;;;;;;;29.08;27.10;;;26.20;48.90;;;;;;5050626;28;20045;-85
2022/07/23 10:24:21;;;;;;;32.33;30.23;;;26.40;49.80;;;;;;5050851;28;20017;-85
2022/07/23 10:26:52;;;;;;;35.00;32.80;;;26.70;49.10;;;;;;5050796;28;20041;-85
2022/07/23 10:29:22;;;;;;;32.20;30.30;;;27.10;48.40;;;;;;5033622;28;20040;-83
2022/07/23 10:32:08;;;;;;;34.27;32.13;;;27.00;47.00;;;;;;5050415;28;20033;-85
2022/07/23 10:34:58;;;;;;;34.97;32.90;;;26.80;47.50;;;;;;5050828;28;20447;-86
2022/07/23 10:37:32;;;;;;;33.35;31.38;;;26.90;47.30;;;;;;5050298;28;20068;-85
2022/07/23 10:40:11;;;;;;;30.70;28.42;;;26.90;46.60;;;;;;5050050;28;20379;-85
2022/07/23 10:42:38;;;;;;;34.78;32.67;;;27.00;47.60;;;;;;5051929;28;20029;-85
2022/07/23 10:45:23;;;;;;;33.17;31.08;;;27.20;46.50;;;;;;5040755;28;20052;-85
2022/07/23 10:47:53;;;;;;;31.92;29.95;;;26.90;44.60;;;;;;5050535;28;20577;-85
2022/07/23 10:50:24;;;;;;;33.90;31.85;;;26.80;46.30;;;;;;5051481;28;20029;-85
2022/07/23 10:53:08;;;;;;;36.60;34.45;;;27.00;46.40;;;;;;5051671;28;20036;-85
2022/07/23 10:55:34;;;;;;;36.63;34.40;;;27.40;45.90;;;;;;5051614;28;20028;-85
2022/07/23 10:58:01;;;;;;;37.85;35.42;;;27.70;45.50;;;;;;5053032;28;20033;-85
2022/07/23 11:00:28;;;;;;;38.65;36.25;;;27.90;45.10;;;;;;5050115;28;20029;-86
2022/07/23 11:02:56;;;;;;;40.65;38.25;;;28.10;45.50;;;;;;5051609;28;20060;-86
2022/07/23 11:05:42;;;;;;;40.15;37.90;;;28.30;44.60;;;;;;5051605;28;20025;-85
2022/07/23 11:08:12;;;;;;;38.80;36.33;;;28.50;44.00;;;;;;5051350;28;20037;-85
2022/07/23 11:10:49;;;;;;;42.90;40.30;;;28.40;43.50;;;;;;5049448;28;20037;-86
2022/07/23 11:13:21;;;;;;;44.38;41.92;;;28.40;43.80;;;;;;5050156;28;20384;-86
2022/07/23 11:16:05;;;;;;;36.50;34.22;;;28.50;43.60;;;;;;5050745;28;20033;-85
2022/07/23 11:18:43;;;;;;;38.22;36.03;;;28.30;43.80;;;;;;5051336;28;20025;-85
2022/07/23 11:21:28;;;;;;;35.08;33.08;;;28.50;44.50;;;;;;5049911;28;20052;-85
2022/07/23 11:24:15;;;;;;;33.45;31.40;;;28.20;43.60;;;;;;5050971;28;20025;-85
2022/07/23 11:26:45;;;;;;;39.58;37.28;;;28.10;44.50;;;;;;5049953;28;20029;-86
2022/07/23 11:29:31;;;;;;;36.85;34.80;;;28.00;44.20;;;;;;5049606;28;20045;-86
2022/07/23 11:32:02;;;;;;;38.85;36.35;;;28.20;43.50;;;;;;5050457;28;20395;-85
2022/07/23 11:34:34;;;;;;;34.80;32.70;;;28.20;41.90;;;;;;5051108;28;20025;-85
2022/07/23 11:37:02;;;;;;;32.58;30.60;;;28.10;42.10;;;;;;5050931;28;20040;-85
2022/07/23 11:39:28;;;;;;;34.35;32.33;;;28.10;42.50;;;;;;5034236;28;20029;-85
2022/07/23 11:41:55;;;;;;;33.17;31.05;;;27.80;42.20;;;;;;5029816;28;20037;-85
2022/07/23 11:44:35;;;;;;;28.10;26.40;;;27.70;43.10;;;;;;5041786;28;20035;-85
2022/07/23 11:47:09;;;;;;;32.17;30.47;;;27.60;43.60;;;;;;5033051;28;20056;-85
2022/07/23 11:49:35;;;;;;;31.33;29.52;;;27.70;44.40;;;;;;5050947;28;20028;-85
2022/07/23 11:52:14;;;;;;;35.95;33.80;;;27.90;43.30;;;;;;5050996;28;20461;-84
2022/07/23 11:54:58;;;;;;;39.05;36.95;;;28.30;43.80;;;;;;5033192;28;20040;-85
2022/07/23 11:57:30;;;;;;;42.90;40.70;;;28.60;42.70;;;;;;5049814;28;20041;-85
2022/07/23 11:59:58;;;;;;;41.90;39.40;;;28.80;42.50;;;;;;5050973;28;20028;-85
2022/07/23 12:02:25;;;;;;;39.97;37.58;;;28.80;40.40;;;;;;5016721;28;20048;-85
2022/07/23 12:04:52;;;;;;;42.10;39.30;;;28.50;41.20;;;;;;5033251;28;20021;-85
2022/07/23 12:07:24;;;;;;;43.17;40.58;;;28.60;41.50;;;;;;5049560;28;20387;-85
2022/07/23 12:09:50;;;;;;;36.78;34.13;;;28.60;41.80;;;;;;5050866;28;20045;-84
2022/07/23 12:12:16;;;;;;;35.53;33.47;;;28.60;42.00;;;;;;5051655;28;20021;-85
2022/07/23 12:14:52;;;;;;;38.50;36.10;;;28.60;42.20;;;;;;5053547;28;20029;-85
2022/07/23 12:17:19;;;;;;;36.95;34.83;;;28.60;42.70;;;;;;5054306;28;20048;-85
2022/07/23 12:19:45;;;;;;;31.17;29.40;;;28.10;42.40;;;;;;5054678;28;20040;-85
2022/07/23 12:22:11;;;;;;;35.03;32.95;;;27.90;42.90;;;;;;5036634;28;20406;-85
2022/07/23 12:25:00;;;;;;;34.88;32.88;;;28.00;43.30;;;;;;5053178;28;20029;-85
2022/07/23 12:27:26;;;;;;;37.70;35.58;;;28.40;42.60;;;;;;5054285;28;20439;-85
2022/07/23 12:29:52;;;;;;;41.40;39.22;;;28.50;41.90;;;;;;5054250;28;20037;-85
2022/07/23 12:32:23;;;;;;;40.17;38.03;;;28.80;42.50;;;;;;5053802;28;20044;-85